Orcas, Washington
Current Conditions -  °F | °C
As of 5:32 AM on Friday 24 Oct 2014 (Local Time) from KFHR Reporting Station
Overcast Overcast  
Wind Chill: 50°   Ceiling: 1300
Heat Index: 50°   Visibility: 10mi
Dew Point: 47°   Wind: 6mph
Humidity: 89%   Direction: 110°ESE
Pressure: 30.02"   Gusts: NA
Location:  48.6°N, 122.94°W
Report Text: KFHR 241232Z AUTO 11005KT 10SM OVC013 10/08 A3002 RMK AO2 RAB03E15 P0000 T01000083
Loading
Personal Weather Stations






























Interactive Weather Map
Tropical Storm Tracking
New forecast layout! Learn more

10-Day Weather Forecast

Advertisements
Track Severe Weather on mobile